Time;durP1;ratioP1;P1;durP2;ratioP2;P2;SDS_P1;SDS_P2;PMS_P1;PMS_P2;Temp;Humidity;BMP_temperature;BMP_pressure;BME280_temperature;BME280_humidity;BME280_pressure;Samples;Min_cycle;Max_cycle;Signal;HPM_P1;HPM_P2
2022/10/05 00:01:19;;;;;;;20.35;9.38;;;;;;;;;;5011642;28;20324;-68
2022/10/05 00:03:45;;;;;;;19.55;9.38;;;;;;;;;;5029704;28;20032;-68
2022/10/05 00:06:11;;;;;;;25.90;10.35;;;;;;;;;;5011645;28;20388;-68
2022/10/05 00:08:36;;;;;;;24.45;11.07;;;;;;;;;;5011604;28;20377;-68
2022/10/05 00:11:05;;;;;;;23.85;10.95;;;;;;;;;;5030020;28;20024;-68
2022/10/05 00:13:30;;;;;;;26.55;10.93;;;;;;;;;;5007824;28;20472;-68
2022/10/05 00:16:14;;;;;;;19.63;8.82;;;;;;;;;;5009377;28;20501;-69
2022/10/05 00:18:40;;;;;;;19.77;10.13;;;;;;;;;;5009682;28;20371;-68
2022/10/05 00:21:15;;;;;;;25.88;11.00;;;;;;;;;;5007955;28;20435;-68
2022/10/05 00:23:40;;;;;;;21.98;10.23;;;;;;;;;;5009510;28;20051;-68
2022/10/05 00:26:29;;;;;;;20.73;10.10;;;;;;;;;;5009523;28;20427;-68
2022/10/05 00:28:54;;;;;;;21.67;10.35;;;;;;;;;;5008421;28;20409;-68
2022/10/05 00:31:23;;;;;;;20.10;9.77;;;;;;;;;;5009491;28;20096;-69
2022/10/05 00:33:49;;;;;;;24.00;10.07;;;;;;;;;;5007758;28;20410;-68
2022/10/05 00:36:14;;;;;;;21.20;9.98;;;;;;;;;;5010380;28;20381;-68
2022/10/05 00:38:40;;;;;;;23.17;9.70;;;;;;;;;;5007973;28;20380;-68
2022/10/05 00:41:11;;;;;;;18.52;9.45;;;;;;;;;;5008712;28;20432;-69
2022/10/05 00:43:49;;;;;;;16.85;8.63;;;;;;;;;;5008022;28;20424;-68
2022/10/05 00:46:46;;;;;;;16.58;9.30;;;;;;;;;;5009125;28;20131;-68
2022/10/05 00:49:25;;;;;;;25.10;9.82;;;;;;;;;;5008266;28;20451;-68
2022/10/05 00:51:54;;;;;;;;;;;;;;;;;;5008656;28;20409;-68
2022/10/05 00:54:43;;;;;;;16.80;8.43;;;;;;;;;;5008814;28;20346;-68
2022/10/05 00:57:27;;;;;;;18.15;9.35;;;;;;;;;;5007372;28;20336;-68
2022/10/05 00:59:59;;;;;;;19.77;9.23;;;;;;;;;;5009066;28;20397;-68
2022/10/05 01:02:30;;;;;;;18.88;9.50;;;;;;;;;;5000233;28;20412;-68
2022/10/05 01:05:04;;;;;;;20.10;9.63;;;;;;;;;;5004850;28;20510;-68
2022/10/05 01:07:50;;;;;;;22.75;10.07;;;;;;;;;;5007171;28;20037;-68
2022/10/05 01:10:30;;;;;;;21.35;9.80;;;;;;;;;;5007043;28;20434;-68
2022/10/05 01:13:08;;;;;;;18.35;8.68;;;;;;;;;;5011763;28;20485;-68
2022/10/05 01:15:50;;;;;;;21.25;9.60;;;;;;;;;;5028370;28;20051;-68
2022/10/05 01:18:21;;;;;;;22.00;9.95;;;;;;;;;;5010196;28;20466;-68
2022/10/05 01:21:22;;;;;;;21.00;9.38;;;;;;;;;;5009952;28;20474;-68
2022/10/05 01:24:26;;;;;;;20.45;9.45;;;;;;;;;;5010565;28;20351;-68
2022/10/05 01:27:01;;;;;;;20.92;9.48;;;;;;;;;;5024047;28;20523;-68
2022/10/05 01:29:53;;;;;;;21.23;9.63;;;;;;;;;;5028257;28;20442;-68
2022/10/05 01:32:38;;;;;;;19.42;9.73;;;;;;;;;;4975388;28;20451;-68
2022/10/05 01:35:34;;;;;;;21.45;9.30;;;;;;;;;;5028040;28;20055;-68
2022/10/05 01:38:10;;;;;;;18.13;9.13;;;;;;;;;;5028105;28;20050;-68
2022/10/05 01:41:02;;;;;;;18.77;10.02;;;;;;;;;;5028802;28;20392;-68
2022/10/05 01:43:35;;;;;;;31.52;10.95;;;;;;;;;;4981253;28;20116;-68
2022/10/05 01:46:26;;;;;;;21.52;10.07;;;;;;;;;;5009752;28;20504;-68
2022/10/05 01:49:29;;;;;;;20.02;9.65;;;;;;;;;;5009526;28;20442;-68
2022/10/05 01:52:06;;;;;;;19.77;9.52;;;;;;;;;;5027601;28;20427;-68
2022/10/05 01:54:34;;;;;;;23.23;10.00;;;;;;;;;;5027430;28;20052;-68
2022/10/05 01:57:50;;;;;;;22.80;10.93;;;;;;;;;;5027786;28;20439;-68
2022/10/05 02:00:17;;;;;;;20.98;9.65;;;;;;;;;;4967764;28;20478;-68
2022/10/05 02:02:47;;;;;;;21.10;9.95;;;;;;;;;;5010605;28;20363;-68
2022/10/05 02:05:17;;;;;;;23.98;10.38;;;;;;;;;;5027731;28;20342;-68
2022/10/05 02:07:54;;;;;;;20.80;10.82;;;;;;;;;;5010379;28;20028;-68
2022/10/05 02:10:28;;;;;;;17.90;9.25;;;;;;;;;;5009349;28;20434;-68
2022/10/05 02:13:00;;;;;;;19.17;9.55;;;;;;;;;;5008649;28;20154;-68
2022/10/05 02:15:30;;;;;;;19.15;10.18;;;;;;;;;;5027418;28;20035;-68
2022/10/05 02:18:01;;;;;;;22.90;10.60;;;;;;;;;;5009313;28;20055;-68
2022/10/05 02:20:28;;;;;;;21.17;10.88;;;;;;;;;;5009173;28;20058;-68
2022/10/05 02:22:58;;;;;;;27.33;11.20;;;;;;;;;;5027572;28;20461;-68
2022/10/05 02:25:30;;;;;;;18.13;9.82;;;;;;;;;;5027179;28;20351;-68
2022/10/05 02:27:59;;;;;;;21.23;9.93;;;;;;;;;;5008976;28;20427;-68
2022/10/05 02:30:24;;;;;;;20.80;9.38;;;;;;;;;;5009203;28;20028;-68
2022/10/05 02:32:55;;;;;;;16.70;9.05;;;;;;;;;;5008940;28;20092;-68
2022/10/05 02:35:21;;;;;;;19.35;9.32;;;;;;;;;;5009902;28;20399;-68
2022/10/05 02:38:39;;;;;;;16.67;9.02;;;;;;;;;;5008785;28;20438;-69
2022/10/05 02:41:19;;;;;;;23.03;9.73;;;;;;;;;;5015609;28;20127;-68
2022/10/05 02:44:07;;;;;;;22.40;10.18;;;;;;;;;;5008918;28;20293;-68
2022/10/05 02:46:40;;;;;;;17.15;9.55;;;;;;;;;;5028540;28;20483;-68
2022/10/05 02:50:02;;;;;;;18.80;9.48;;;;;;;;;;5009169;28;20412;-69
2022/10/05 02:52:28;;;;;;;15.52;8.98;;;;;;;;;;4945640;28;20065;-68
2022/10/05 02:55:22;;;;;;;24.48;8.75;;;;;;;;;;4945946;28;20140;-68
2022/10/05 02:58:13;;;;;;;14.88;8.07;;;;;;;;;;4991566;28;20451;-68
2022/10/05 03:00:55;;;;;;;17.60;8.05;;;;;;;;;;4992142;28;20514;-68
2022/10/05 03:03:33;;;;;;;15.25;8.95;;;;;;;;;;5008858;28;20386;-68
2022/10/05 03:06:05;;;;;;;21.17;8.73;;;;;;;;;;5028796;28;20504;-68
2022/10/05 03:08:37;;;;;;;12.07;7.88;;;;;;;;;;5032843;28;20626;-68
2022/10/05 03:11:25;;;;;;;32.00;9.30;;;;;;;;;;5030985;28;20020;-68
2022/10/05 03:14:09;;;;;;;18.08;8.80;;;;;;;;;;5008853;28;20532;-69
2022/10/05 03:16:42;;;;;;;21.27;9.45;;;;;;;;;;5010567;28;20041;-68
2022/10/05 03:19:32;;;;;;;16.73;9.52;;;;;;;;;;5008911;28;20029;-68
2022/10/05 03:22:18;;;;;;;17.42;8.90;;;;;;;;;;5010654;28;20508;-68
2022/10/05 03:24:51;;;;;;;15.38;8.43;;;;;;;;;;5010826;28;20375;-68
2022/10/05 03:27:38;;;;;;;17.45;9.27;;;;;;;;;;5010894;28;20055;-68
2022/10/05 03:30:10;;;;;;;23.77;8.40;;;;;;;;;;5010512;28;20363;-68
2022/10/05 03:32:51;;;;;;;18.35;8.27;;;;;;;;;;5008862;28;20343;-68
2022/10/05 03:35:27;;;;;;;14.38;8.05;;;;;;;;;;5011107;28;20447;-68
2022/10/05 03:37:59;;;;;;;16.67;8.98;;;;;;;;;;5008551;28;20028;-68
2022/10/05 03:40:49;;;;;;;15.88;8.73;;;;;;;;;;5008875;28;20020;-68
2022/10/05 03:43:14;;;;;;;14.85;8.40;;;;;;;;;;5008572;28;20097;-68
2022/10/05 03:46:07;;;;;;;14.77;8.57;;;;;;;;;;5010383;28;20025;-68
2022/10/05 03:48:49;;;;;;;16.38;7.47;;;;;;;;;;5008897;28;20088;-68
2022/10/05 03:51:28;;;;;;;19.33;8.02;;;;;;;;;;5008563;28;20431;-68
2022/10/05 03:54:07;;;;;;;15.20;8.57;;;;;;;;;;5008769;28;20021;-68
2022/10/05 03:56:36;;;;;;;14.70;7.60;;;;;;;;;;5008139;28;20028;-68
2022/10/05 03:59:15;;;;;;;;;;;;;;;;;;5009629;28;20473;-68
2022/10/05 04:01:51;;;;;;;17.35;7.88;;;;;;;;;;5008383;28;20066;-69
2022/10/05 04:04:25;;;;;;;13.50;7.75;;;;;;;;;;5008352;28;20402;-68
2022/10/05 04:06:52;;;;;;;16.88;7.68;;;;;;;;;;5010890;28;20435;-68
2022/10/05 04:09:24;;;;;;;16.95;8.45;;;;;;;;;;5009022;28;20339;-68
2022/10/05 04:11:58;;;;;;;16.90;7.53;;;;;;;;;;5008548;28;20458;-68
2022/10/05 04:14:32;;;;;;;15.25;8.13;;;;;;;;;;5024678;28;20052;-68
2022/10/05 04:17:02;;;;;;;13.00;7.43;;;;;;;;;;5029169;28;20381;-68
2022/10/05 04:19:27;;;;;;;14.65;8.35;;;;;;;;;;5011605;28;20572;-68
2022/10/05 04:22:08;;;;;;;16.33;8.43;;;;;;;;;;5030811;28;20463;-68
2022/10/05 04:24:40;;;;;;;12.75;7.25;;;;;;;;;;5030148;28;20397;-68
2022/10/05 04:27:20;;;;;;;14.77;7.63;;;;;;;;;;5011912;28;20028;-68
2022/10/05 04:30:11;;;;;;;15.02;7.88;;;;;;;;;;5029655;28;20390;-68
2022/10/05 04:32:40;;;;;;;15.75;7.75;;;;;;;;;;5011372;28;20432;-68
2022/10/05 04:35:44;;;;;;;15.98;8.45;;;;;;;;;;5011214;28;20416;-68
2022/10/05 04:38:22;;;;;;;15.88;8.00;;;;;;;;;;5031395;28;20415;-68
2022/10/05 04:40:53;;;;;;;16.15;8.05;;;;;;;;;;5010969;28;20089;-68
2022/10/05 04:43:44;;;;;;;16.50;8.77;;;;;;;;;;5029017;28;20108;-68
2022/10/05 04:46:28;;;;;;;17.63;7.93;;;;;;;;;;5011134;28;20320;-68
2022/10/05 04:49:12;;;;;;;15.63;7.80;;;;;;;;;;5028847;28;20447;-68
2022/10/05 04:51:55;;;;;;;18.35;7.93;;;;;;;;;;5029214;28;20320;-68
2022/10/05 04:54:45;;;;;;;19.80;7.55;;;;;;;;;;5029029;28;20074;-68
2022/10/05 04:57:20;;;;;;;13.10;7.63;;;;;;;;;;5029000;28;20434;-68
2022/10/05 05:00:04;;;;;;;15.23;8.52;;;;;;;;;;5010861;28;20438;-68
2022/10/05 05:03:07;;;;;;;15.00;7.18;;;;;;;;;;5010550;28;20016;-68
2022/10/05 05:05:47;;;;;;;14.35;7.40;;;;;;;;;;5029321;28;20044;-68
2022/10/05 05:08:56;;;;;;;15.68;8.32;;;;;;;;;;5010382;28;20459;-70
2022/10/05 05:11:38;;;;;;;14.82;7.28;;;;;;;;;;4991585;28;20354;-68
2022/10/05 05:14:41;;;;;;;18.25;8.27;;;;;;;;;;5028755;28;20470;-68
2022/10/05 05:17:14;;;;;;;17.02;8.90;;;;;;;;;;5028355;28;20047;-68
2022/10/05 05:20:19;;;;;;;12.02;6.80;;;;;;;;;;5028421;28;20461;-69
2022/10/05 05:23:18;;;;;;;13.20;6.53;;;;;;;;;;4993459;28;20375;-69
2022/10/05 05:25:55;;;;;;;13.77;7.00;;;;;;;;;;4942550;28;20485;-70
2022/10/05 05:28:32;;;;;;;12.70;7.20;;;;;;;;;;5009215;28;20046;-68
2022/10/05 05:31:07;;;;;;;12.85;6.72;;;;;;;;;;5010115;28;20517;-68
2022/10/05 05:34:00;;;;;;;15.35;6.85;;;;;;;;;;5010089;28;20531;-68
2022/10/05 05:36:38;;;;;;;13.30;6.65;;;;;;;;;;5028018;28;20443;-68
2022/10/05 05:39:22;;;;;;;13.33;7.00;;;;;;;;;;5010328;28;20360;-68
2022/10/05 05:41:57;;;;;;;16.35;6.07;;;;;;;;;;5028231;28;20458;-68
2022/10/05 05:44:26;;;;;;;11.45;7.03;;;;;;;;;;5029273;28;20112;-68
2022/10/05 05:47:00;;;;;;;12.88;7.63;;;;;;;;;;5027653;28;20523;-68
2022/10/05 05:49:38;;;;;;;10.00;6.03;;;;;;;;;;5009521;28;20388;-68
2022/10/05 05:52:29;;;;;;;13.40;7.05;;;;;;;;;;5027880;28;20549;-68
2022/10/05 05:55:03;;;;;;;12.02;6.22;;;;;;;;;;5027339;28;20451;-68
2022/10/05 05:57:34;;;;;;;11.27;6.50;;;;;;;;;;5028416;28;20416;-68
2022/10/05 06:00:06;;;;;;;13.23;7.13;;;;;;;;;;5009546;28;20435;-68
2022/10/05 06:03:10;;;;;;;20.75;6.57;;;;;;;;;;5010399;28;20350;-68
2022/10/05 06:05:41;;;;;;;17.70;6.85;;;;;;;;;;4993637;28;20079;-68
2022/10/05 06:08:15;;;;;;;14.77;6.50;;;;;;;;;;5009922;28;20439;-68
2022/10/05 06:10:48;;;;;;;11.63;6.95;;;;;;;;;;5009643;28;20349;-68
2022/10/05 06:13:32;;;;;;;14.70;7.15;;;;;;;;;;4988986;28;20360;-68
2022/10/05 06:16:14;;;;;;;12.73;7.22;;;;;;;;;;5005974;28;20465;-68
2022/10/05 06:18:42;;;;;;;21.15;7.68;;;;;;;;;;5005927;28;20020;-68
2022/10/05 06:21:36;;;;;;;16.80;7.30;;;;;;;;;;5006507;28;20325;-68
2022/10/05 06:24:08;;;;;;;11.93;6.75;;;;;;;;;;5003101;28;20467;-69
2022/10/05 06:27:11;;;;;;;12.80;7.05;;;;;;;;;;5006064;28;20473;-68
2022/10/05 06:29:53;;;;;;;14.20;7.18;;;;;;;;;;5007540;28;20172;-68
2022/10/05 06:32:47;;;;;;;13.32;5.82;;;;;;;;;;5008822;28;20521;-68
2022/10/05 06:35:40;;;;;;;9.55;6.05;;;;;;;;;;5005958;28;20462;-68
2022/10/05 06:38:57;;;;;;;13.05;5.80;;;;;;;;;;5007502;28;20426;-68
2022/10/05 06:41:30;;;;;;;14.90;6.30;;;;;;;;;;4985437;28;20375;-68
2022/10/05 06:43:59;;;;;;;13.43;6.53;;;;;;;;;;5011639;28;20040;-68
2022/10/05 06:46:33;;;;;;;9.30;4.80;;;;;;;;;;5009646;28;20078;-68
2022/10/05 06:49:09;;;;;;;10.05;5.43;;;;;;;;;;5009670;28;20498;-68
2022/10/05 06:51:49;;;;;;;9.48;5.20;;;;;;;;;;5009779;28;20418;-68
2022/10/05 06:54:48;;;;;;;9.20;5.45;;;;;;;;;;5011667;28;20128;-68
2022/10/05 06:57:16;;;;;;;13.00;6.70;;;;;;;;;;5011126;28;20351;-68
2022/10/05 07:00:03;;;;;;;10.25;5.35;;;;;;;;;;5010878;28;20378;-68
2022/10/05 07:02:56;;;;;;;11.75;6.15;;;;;;;;;;5011120;28;20469;-68
2022/10/05 07:05:43;;;;;;;16.10;7.20;;;;;;;;;;5009401;28;20425;-68
2022/10/05 07:08:19;;;;;;;18.65;7.68;;;;;;;;;;5010855;28;20434;-68
2022/10/05 07:11:04;;;;;;;18.27;7.75;;;;;;;;;;5011374;28;20032;-68
2022/10/05 07:13:54;;;;;;;12.52;5.82;;;;;;;;;;5018121;28;20364;-68
2022/10/05 07:16:22;;;;;;;12.00;5.25;;;;;;;;;;5031031;28;20407;-68
2022/10/05 07:19:00;;;;;;;9.13;5.00;;;;;;;;;;5032764;28;20439;-68
2022/10/05 07:21:38;;;;;;;13.48;4.72;;;;;;;;;;5012613;28;20499;-68
2022/10/05 07:24:32;;;;;;;8.98;5.00;;;;;;;;;;5012674;28;20446;-68
2022/10/05 07:27:20;;;;;;;8.57;4.82;;;;;;;;;;5012257;28;20346;-68
2022/10/05 07:30:06;;;;;;;11.13;5.07;;;;;;;;;;5012249;28;20501;-69
2022/10/05 07:32:33;;;;;;;7.88;5.15;;;;;;;;;;5011924;28;20389;-68
2022/10/05 07:35:01;;;;;;;9.35;5.22;;;;;;;;;;5012240;28;20358;-68
2022/10/05 07:40:22;;;;;;;9.45;4.97;;;;;;;;;;5030236;28;20735;-68
2022/10/05 07:43:13;;;;;;;13.70;5.32;;;;;;;;;;5012624;28;20491;-68
2022/10/05 07:45:51;;;;;;;10.10;5.00;;;;;;;;;;5031209;28;20024;-68
2022/10/05 07:48:20;;;;;;;8.75;4.30;;;;;;;;;;5030646;28;20401;-68
2022/10/05 07:50:57;;;;;;;9.07;4.95;;;;;;;;;;5011416;28;20355;-68
2022/10/05 07:53:25;;;;;;;10.70;5.22;;;;;;;;;;5011885;28;20514;-69
2022/10/05 07:55:53;;;;;;;13.05;5.20;;;;;;;;;;5030734;28;20513;-68
2022/10/05 07:58:33;;;;;;;10.93;5.25;;;;;;;;;;5011679;28;20343;-68
2022/10/05 08:01:11;;;;;;;9.68;4.82;;;;;;;;;;5012105;28;20351;-68
2022/10/05 08:04:02;;;;;;;14.20;5.33;;;;;;;;;;5030320;28;20439;-67
2022/10/05 08:06:37;;;;;;;9.05;5.28;;;;;;;;;;5029730;28;20456;-68
2022/10/05 08:09:15;;;;;;;8.02;4.38;;;;;;;;;;5029664;28;20104;-68
2022/10/05 08:11:49;;;;;;;10.25;4.60;;;;;;;;;;5011346;28;20446;-68
2022/10/05 08:14:33;;;;;;;5.70;3.83;;;;;;;;;;5029496;28;20408;-68
2022/10/05 08:17:02;;;;;;;8.57;4.03;;;;;;;;;;5030677;28;20464;-68
2022/10/05 08:19:46;;;;;;;;;;;;;;;;;;5011934;28;20320;-68
2022/10/05 08:22:28;;;;;;;9.68;4.00;;;;;;;;;;5011371;28;20377;-68
2022/10/05 08:25:01;;;;;;;8.35;4.30;;;;;;;;;;5011276;28;20450;-68
2022/10/05 08:27:52;;;;;;;9.55;4.25;;;;;;;;;;5011497;28;20491;-68
2022/10/05 08:30:18;;;;;;;6.85;3.33;;;;;;;;;;5029573;28;20036;-68
2022/10/05 08:33:02;;;;;;;7.63;3.90;;;;;;;;;;5029276;28;20046;-68
2022/10/05 08:35:29;;;;;;;11.52;4.00;;;;;;;;;;5010921;28;20463;-68
2022/10/05 08:37:55;;;;;;;9.77;4.57;;;;;;;;;;5028960;28;20382;-68
2022/10/05 08:40:38;;;;;;;8.63;3.63;;;;;;;;;;5030275;28;20343;-67
2022/10/05 08:43:21;;;;;;;8.98;4.03;;;;;;;;;;5028975;28;20453;-68
2022/10/05 08:45:52;;;;;;;11.23;3.45;;;;;;;;;;5029042;28;20442;-68
2022/10/05 08:48:32;;;;;;;7.05;4.13;;;;;;;;;;5029036;28;20451;-68
2022/10/05 08:51:05;;;;;;;7.90;3.53;;;;;;;;;;5028805;28;20055;-67
2022/10/05 08:53:52;;;;;;;7.68;3.88;;;;;;;;;;5010791;28;20454;-68
2022/10/05 08:56:39;;;;;;;7.85;3.83;;;;;;;;;;5028836;28;20050;-67
2022/10/05 08:59:24;;;;;;;6.70;3.67;;;;;;;;;;5030447;28;20032;-67
2022/10/05 09:02:04;;;;;;;12.10;3.95;;;;;;;;;;5030011;28;20369;-67
2022/10/05 09:04:48;;;;;;;9.35;3.88;;;;;;;;;;5027754;28;20398;-67
2022/10/05 09:07:22;;;;;;;6.75;3.45;;;;;;;;;;5028936;28;20455;-68
2022/10/05 09:10:35;;;;;;;6.18;3.20;;;;;;;;;;5028612;28;20442;-67
2022/10/05 09:13:47;;;;;;;8.77;3.03;;;;;;;;;;4954135;28;20553;-67
2022/10/05 09:16:42;;;;;;;7.90;3.60;;;;;;;;;;5007092;28;20032;-67
2022/10/05 09:19:38;;;;;;;10.02;3.72;;;;;;;;;;5008672;28;20036;-67
2022/10/05 09:22:23;;;;;;;6.85;3.22;;;;;;;;;;5008301;28;20466;-67
2022/10/05 09:24:56;;;;;;;5.93;3.83;;;;;;;;;;5010342;28;20355;-67
2022/10/05 09:28:01;;;;;;;5.20;2.95;;;;;;;;;;5006693;28;20131;-67
2022/10/05 09:30:57;;;;;;;6.97;3.08;;;;;;;;;;5007739;28;20341;-67
2022/10/05 09:33:34;;;;;;;5.88;2.88;;;;;;;;;;4973435;28;20443;-67
2022/10/05 09:36:26;;;;;;;5.20;2.80;;;;;;;;;;5008011;28;20498;-67
2022/10/05 09:39:09;;;;;;;6.13;3.28;;;;;;;;;;5008594;28;20419;-67
2022/10/05 09:42:06;;;;;;;4.32;2.92;;;;;;;;;;5007876;28;20432;-67
2022/10/05 09:44:39;;;;;;;5.68;2.67;;;;;;;;;;4987094;28;20332;-67
2022/10/05 09:47:35;;;;;;;5.97;3.30;;;;;;;;;;5007857;28;20431;-67
2022/10/05 09:50:39;;;;;;;6.20;3.25;;;;;;;;;;5006146;28;20055;-67
2022/10/05 09:53:39;;;;;;;5.50;3.58;;;;;;;;;;5007893;28;20091;-67
2022/10/05 09:56:33;;;;;;;7.05;3.17;;;;;;;;;;5006810;28;20440;-67
2022/10/05 09:59:21;;;;;;;7.18;3.10;;;;;;;;;;5007979;28;20425;-67
2022/10/05 10:02:26;;;;;;;4.03;2.47;;;;;;;;;;5007833;28;20455;-67
2022/10/05 10:05:18;;;;;;;5.72;2.95;;;;;;;;;;5007883;28;20431;-67
2022/10/05 10:07:50;;;;;;;4.90;2.67;;;;;;;;;;5006469;28;20531;-67
2022/10/05 10:10:28;;;;;;;4.75;2.92;;;;;;;;;;5007751;28;20470;-67
2022/10/05 10:13:05;;;;;;;7.25;3.15;;;;;;;;;;5009078;28;20453;-67
2022/10/05 10:15:44;;;;;;;4.38;2.50;;;;;;;;;;5027192;28;20111;-67
2022/10/05 10:18:13;;;;;;;4.70;2.85;;;;;;;;;;5010132;28;20028;-67
2022/10/05 10:21:10;;;;;;;7.97;3.00;;;;;;;;;;5027270;28;20431;-67
2022/10/05 10:23:50;;;;;;;3.65;2.33;;;;;;;;;;5009041;28;20435;-67
2022/10/05 10:26:22;;;;;;;5.40;2.80;;;;;;;;;;5027894;28;20355;-67
2022/10/05 10:29:07;;;;;;;6.72;2.53;;;;;;;;;;5027151;28;20363;-67
2022/10/05 10:31:47;;;;;;;5.00;2.47;;;;;;;;;;5029046;28;20447;-67
2022/10/05 10:34:48;;;;;;;4.78;3.08;;;;;;;;;;5027208;28;20127;-67
2022/10/05 10:37:38;;;;;;;3.75;2.10;;;;;;;;;;5013681;28;20351;-67
2022/10/05 10:40:25;;;;;;;3.60;2.22;;;;;;;;;;5010180;28;20421;-68
2022/10/05 10:43:21;;;;;;;5.15;2.35;;;;;;;;;;5027505;28;20032;-67
2022/10/05 10:46:12;;;;;;;4.88;2.55;;;;;;;;;;5009063;28;20435;-67
2022/10/05 10:48:53;;;;;;;4.43;2.63;;;;;;;;;;5008944;28;20388;-67
2022/10/05 10:51:43;;;;;;;4.82;2.92;;;;;;;;;;5027096;28;20399;-67
2022/10/05 10:54:35;;;;;;;5.93;2.88;;;;;;;;;;5028585;28;20501;-67
2022/10/05 10:57:18;;;;;;;9.07;2.67;;;;;;;;;;5027305;28;20417;-67
2022/10/05 10:59:59;;;;;;;4.93;2.72;;;;;;;;;;5008792;28;20354;-67
2022/10/05 11:02:45;;;;;;;2.72;1.92;;;;;;;;;;5027049;28;20375;-67
2022/10/05 11:06:08;;;;;;;6.68;2.70;;;;;;;;;;5008879;28;20100;-67
2022/10/05 11:09:09;;;;;;;3.38;2.35;;;;;;;;;;4945757;28;20540;-67
2022/10/05 11:11:58;;;;;;;5.43;2.42;;;;;;;;;;4929347;28;20453;-67
2022/10/05 11:14:52;;;;;;;7.45;2.60;;;;;;;;;;4993720;28;20475;-67
2022/10/05 11:17:33;;;;;;;4.72;2.53;;;;;;;;;;5005443;28;20439;-67
2022/10/05 11:20:08;;;;;;;3.08;2.10;;;;;;;;;;5006190;28;20342;-67
2022/10/05 11:22:44;;;;;;;4.68;2.47;;;;;;;;;;5007049;28;20386;-67
2022/10/05 11:25:57;;;;;;;4.55;2.60;;;;;;;;;;5005418;28;20439;-67
2022/10/05 11:28:22;;;;;;;4.10;2.42;;;;;;;;;;4996811;28;20044;-67
2022/10/05 11:30:56;;;;;;;4.90;2.25;;;;;;;;;;5011805;28;20445;-67
2022/10/05 11:33:52;;;;;;;6.72;2.20;;;;;;;;;;5010384;28;20424;-67
2022/10/05 11:36:36;;;;;;;5.18;2.10;;;;;;;;;;5010646;28;20473;-67
2022/10/05 11:39:29;;;;;;;4.05;2.00;;;;;;;;;;5011995;28;20466;-67
2022/10/05 11:42:30;;;;;;;5.38;2.55;;;;;;;;;;5010954;28;20434;-67
2022/10/05 11:45:39;;;;;;;2.67;1.98;;;;;;;;;;4981405;28;20455;-67
2022/10/05 11:48:15;;;;;;;4.28;2.50;;;;;;;;;;4987070;28;20348;-67
2022/10/05 11:51:00;;;;;;;5.18;1.90;;;;;;;;;;5008645;28;20382;-67
2022/10/05 11:53:28;;;;;;;3.38;1.83;;;;;;;;;;5010046;28;20051;-67
2022/10/05 11:56:05;;;;;;;2.63;1.77;;;;;;;;;;5008688;28;20029;-67
2022/10/05 11:59:10;;;;;;;4.13;1.70;;;;;;;;;;5009866;28;20051;-67
2022/10/05 12:01:55;;;;;;;6.45;1.77;;;;;;;;;;5009737;28;20347;-67
2022/10/05 12:04:49;;;;;;;3.78;2.05;;;;;;;;;;5009793;28;20316;-67
2022/10/05 12:07:41;;;;;;;3.28;1.73;;;;;;;;;;5009676;28;20348;-67
2022/10/05 12:10:43;;;;;;;3.33;2.10;;;;;;;;;;5010602;28;20415;-67
2022/10/05 12:13:24;;;;;;;2.50;1.70;;;;;;;;;;5012913;28;20044;-66
2022/10/05 12:15:52;;;;;;;3.33;2.03;;;;;;;;;;5011478;28;20454;-67
2022/10/05 12:18:26;;;;;;;4.95;2.08;;;;;;;;;;5011239;28;20374;-67
2022/10/05 12:21:04;;;;;;;2.90;1.98;;;;;;;;;;5029699;28;20445;-67
2022/10/05 12:23:46;;;;;;;3.80;1.63;;;;;;;;;;5011944;28;20473;-67
2022/10/05 12:26:53;;;;;;;4.25;2.08;;;;;;;;;;5011201;28;20419;-67
2022/10/05 12:29:31;;;;;;;3.25;1.70;;;;;;;;;;4948327;28;20453;-67
2022/10/05 12:32:07;;;;;;;3.97;1.92;;;;;;;;;;4947707;28;20511;-67
2022/10/05 12:34:51;;;;;;;4.95;1.50;;;;;;;;;;5000040;28;20511;-67
2022/10/05 12:37:38;;;;;;;4.10;2.03;;;;;;;;;;5028871;28;20474;-67
2022/10/05 12:40:15;;;;;;;3.80;1.90;;;;;;;;;;5029367;28;20096;-67
2022/10/05 12:42:59;;;;;;;3.08;1.80;;;;;;;;;;5011264;28;20374;-67
2022/10/05 12:45:49;;;;;;;3.45;2.13;;;;;;;;;;5028991;28;20024;-67
2022/10/05 12:48:27;;;;;;;2.88;2.08;;;;;;;;;;5029224;28;20439;-67
2022/10/05 12:50:56;;;;;;;3.17;1.83;;;;;;;;;;5029145;28;20090;-67
2022/10/05 12:53:33;;;;;;;3.03;1.85;;;;;;;;;;4994269;28;20450;-67
2022/10/05 12:56:40;;;;;;;3.08;1.98;;;;;;;;;;5029512;28;20032;-67
2022/10/05 12:59:24;;;;;;;4.03;2.15;;;;;;;;;;5010649;28;20435;-67
2022/10/05 13:02:00;;;;;;;5.57;2.00;;;;;;;;;;5028955;28;20036;-67
2022/10/05 13:04:48;;;;;;;1.92;1.27;;;;;;;;;;5028669;28;20505;-67
2022/10/05 13:07:41;;;;;;;4.17;2.33;;;;;;;;;;5029090;28;20472;-67
2022/10/05 13:10:30;;;;;;;4.10;1.80;;;;;;;;;;5028471;28;20439;-67
2022/10/05 13:12:55;;;;;;;;;;;;;;;;;;5010450;28;20461;-67
2022/10/05 13:15:49;;;;;;;2.93;1.83;;;;;;;;;;5010401;28;20278;-67
2022/10/05 13:18:53;;;;;;;3.33;1.80;;;;;;;;;;5026311;28;20401;-67
2022/10/05 13:21:28;;;;;;;3.83;1.80;;;;;;;;;;4987294;28;20484;-67
2022/10/05 13:24:13;;;;;;;4.22;2.35;;;;;;;;;;5010961;28;20431;-67
2022/10/05 13:26:41;;;;;;;7.65;2.40;;;;;;;;;;5028512;28;20382;-67
2022/10/05 13:29:16;;;;;;;4.93;2.33;;;;;;;;;;5027982;28;20346;-67
2022/10/05 13:31:48;;;;;;;4.50;2.42;;;;;;;;;;5011118;28;20450;-67
2022/10/05 13:34:44;;;;;;;3.65;2.15;;;;;;;;;;5028365;28;20431;-67
2022/10/05 13:37:28;;;;;;;8.88;2.90;;;;;;;;;;5027990;28;20040;-67
2022/10/05 13:40:13;;;;;;;3.67;2.00;;;;;;;;;;5030224;28;20395;-67
2022/10/05 13:42:47;;;;;;;3.67;2.10;;;;;;;;;;5027297;28;20165;-67
2022/10/05 13:45:14;;;;;;;6.28;2.05;;;;;;;;;;5010118;28;20036;-67
2022/10/05 13:47:40;;;;;;;6.90;2.35;;;;;;;;;;5009664;28;20415;-67
2022/10/05 13:50:14;;;;;;;2.67;1.77;;;;;;;;;;5028720;28;21008;-67
2022/10/05 13:52:54;;;;;;;4.15;2.42;;;;;;;;;;5028030;28;20389;-67
2022/10/05 13:55:33;;;;;;;4.35;1.80;;;;;;;;;;5027788;28;20362;-67
2022/10/05 13:58:13;;;;;;;6.50;2.25;;;;;;;;;;5009588;28;20453;-67
2022/10/05 14:01:11;;;;;;;4.05;1.95;;;;;;;;;;5027925;28;20435;-66
2022/10/05 14:03:37;;;;;;;3.95;1.98;;;;;;;;;;5000722;28;20530;-66
2022/10/05 14:06:11;;;;;;;4.13;2.17;;;;;;;;;;5028114;28;20362;-67
2022/10/05 14:08:52;;;;;;;3.40;1.95;;;;;;;;;;5009317;28;20350;-67
2022/10/05 14:11:30;;;;;;;3.15;1.90;;;;;;;;;;5027499;28;20541;-68
2022/10/05 14:14:47;;;;;;;5.90;1.90;;;;;;;;;;5027066;28;20424;-67
2022/10/05 14:17:39;;;;;;;3.20;2.35;;;;;;;;;;4946176;28;20269;-67
2022/10/05 14:20:24;;;;;;;3.47;2.08;;;;;;;;;;4922424;28;20531;-67
2022/10/05 14:22:53;;;;;;;4.75;2.13;;;;;;;;;;5016115;28;20043;-67
2022/10/05 14:25:18;;;;;;;3.42;2.10;;;;;;;;;;5009418;28;20324;-67
2022/10/05 14:28:11;;;;;;;2.25;1.67;;;;;;;;;;5027376;28;20351;-67
2022/10/05 14:30:38;;;;;;;6.32;3.13;;;;;;;;;;5027375;28;20450;-67
2022/10/05 14:33:03;;;;;;;3.65;2.10;;;;;;;;;;5009154;28;20419;-67
2022/10/05 14:35:30;;;;;;;4.35;2.03;;;;;;;;;;5027230;28;20032;-67
2022/10/05 14:37:59;;;;;;;6.78;1.85;;;;;;;;;;5009316;28;20469;-67
2022/10/05 14:40:29;;;;;;;4.15;2.45;;;;;;;;;;5027753;28;20427;-67
2022/10/05 14:42:55;;;;;;;3.53;2.03;;;;;;;;;;5027363;28;20076;-67
2022/10/05 14:45:28;;;;;;;3.55;2.15;;;;;;;;;;5009232;28;20078;-67
2022/10/05 14:48:05;;;;;;;5.75;2.50;;;;;;;;;;5027234;28;20503;-67
2022/10/05 14:50:30;;;;;;;4.35;2.15;;;;;;;;;;5009083;28;20466;-67
2022/10/05 14:53:20;;;;;;;5.07;2.30;;;;;;;;;;5009004;28;20497;-67
2022/10/05 14:55:57;;;;;;;2.92;1.90;;;;;;;;;;5026994;28;20024;-67
2022/10/05 14:58:48;;;;;;;7.30;2.28;;;;;;;;;;5027649;28;20536;-67
2022/10/05 15:01:30;;;;;;;2.63;1.52;;;;;;;;;;5029590;28;20343;-67
2022/10/05 15:04:23;;;;;;;4.40;1.75;;;;;;;;;;5031312;28;20455;-66
2022/10/05 15:06:48;;;;;;;3.22;2.00;;;;;;;;;;5030946;28;20380;-66
2022/10/05 15:09:45;;;;;;;3.50;2.10;;;;;;;;;;5030865;28;20378;-66
2022/10/05 15:12:13;;;;;;;4.07;1.85;;;;;;;;;;5001975;28;20520;-66
2022/10/05 15:14:42;;;;;;;3.73;1.87;;;;;;;;;;5030395;28;20048;-67
2022/10/05 15:17:18;;;;;;;2.10;1.48;;;;;;;;;;5031028;28;20466;-67
2022/10/05 15:19:58;;;;;;;3.35;1.80;;;;;;;;;;5033069;28;20466;-67
2022/10/05 15:22:30;;;;;;;2.50;1.52;;;;;;;;;;5012458;28;20032;-67
2022/10/05 15:25:04;;;;;;;4.15;2.50;;;;;;;;;;5012629;28;20563;-67
2022/10/05 15:27:55;;;;;;;3.17;1.63;;;;;;;;;;5012356;28;20410;-67
2022/10/05 15:30:22;;;;;;;3.85;1.85;;;;;;;;;;5012581;28;20508;-66
2022/10/05 15:32:50;;;;;;;5.03;1.83;;;;;;;;;;5012600;28;20117;-67
2022/10/05 15:35:27;;;;;;;3.90;1.90;;;;;;;;;;5030383;28;20373;-67
2022/10/05 15:38:23;;;;;;;2.72;1.83;;;;;;;;;;5031010;28;20468;-67
2022/10/05 15:41:01;;;;;;;3.63;2.00;;;;;;;;;;5012674;28;20355;-67
2022/10/05 15:43:37;;;;;;;2.33;1.50;;;;;;;;;;5012727;28;20422;-67
2022/10/05 15:46:09;;;;;;;4.25;2.00;;;;;;;;;;5011925;28;20021;-67
2022/10/05 15:48:57;;;;;;;2.85;1.80;;;;;;;;;;5030209;28;20431;-67
2022/10/05 15:51:54;;;;;;;3.80;1.90;;;;;;;;;;5019055;28;20462;-67
2022/10/05 15:54:41;;;;;;;3.00;1.77;;;;;;;;;;4984666;28;20447;-67
2022/10/05 15:57:25;;;;;;;4.38;2.20;;;;;;;;;;5030089;28;20469;-67
2022/10/05 16:00:03;;;;;;;2.75;1.60;;;;;;;;;;5029954;28;20090;-66
2022/10/05 16:02:42;;;;;;;4.38;1.80;;;;;;;;;;5012174;28;20392;-67
2022/10/05 16:08:49;;;;;;;3.67;2.55;;;;;;;;;;5011490;28;20447;-67